Witney, United Kingdom
Current Conditions -  °F | °C
As of 5:50 PM on Friday 31 Oct 2014 (Local Time) from EGVN Reporting Station
Clear Clear  
Wind Chill: 63°   Ceiling: Unl
Heat Index: 63°   Visibility: 6mi
Dew Point: 54°   Wind: 8mph
Humidity: 72%   Direction: 170°S
Pressure: 29.91"   Gusts: NA
Location:  51.78°N, 1.49°W
Report Text: EGVN 311750Z 17007KT CAVOK 17/12 Q1013 NOSIG
Loading
Personal Weather Stations






























Interactive Weather Map
Tropical Storm Tracking
New forecast layout! Learn more

10-Day Weather Forecast

Advertisements
Track Severe Weather on mobile